Time;durP1;ratioP1;P1;durP2;ratioP2;P2;SDS_P1;SDS_P2;PMS_P1;PMS_P2;Temp;Humidity;BMP_temperature;BMP_pressure;BME280_temperature;BME280_humidity;BME280_pressure;Samples;Min_cycle;Max_cycle;Signal;HPM_P1;HPM_P2
2023/08/16 00:01:24;;;;;;;5.10;4.07;;;15.50;99.90;;;;;;5091682;28;20430;-58
2023/08/16 00:03:51;;;;;;;5.05;3.00;;;15.50;99.90;;;;;;5092039;28;20114;-58
2023/08/16 00:06:17;;;;;;;4.40;3.60;;;15.40;99.90;;;;;;5092266;28;20111;-59
2023/08/16 00:08:43;;;;;;;5.30;3.67;;;15.40;99.90;;;;;;5091891;28;20115;-58
2023/08/16 00:11:10;;;;;;;4.00;3.38;;;15.30;99.90;;;;;;5090310;28;20073;-58
2023/08/16 00:13:36;;;;;;;5.78;3.92;;;15.40;99.90;;;;;;5091709;28;20044;-58
2023/08/16 00:16:03;;;;;;;6.93;4.20;;;15.20;99.90;;;;;;5091000;28;20036;-58
2023/08/16 00:18:30;;;;;;;4.28;3.88;;;15.40;99.90;;;;;;5091487;28;20051;-58
2023/08/16 00:20:58;;;;;;;4.82;3.40;;;15.40;99.90;;;;;;5091699;28;20123;-59
2023/08/16 00:23:24;;;;;;;7.63;4.30;;;15.40;99.90;;;;;;5091897;28;20149;-58
2023/08/16 00:25:51;;;;;;;7.10;3.75;;;15.50;99.90;;;;;;5091784;28;20036;-58
2023/08/16 00:28:17;;;;;;;5.45;4.15;;;15.30;99.90;;;;;;5091678;28;20398;-58
2023/08/16 00:30:44;;;;;;;4.50;4.10;;;15.20;99.90;;;;;;5091580;28;20039;-58
2023/08/16 00:33:11;;;;;;;7.80;4.18;;;15.10;99.90;;;;;;5092057;28;20040;-57
2023/08/16 00:35:37;;;;;;;7.80;4.10;;;15.20;99.90;;;;;;5091428;28;20052;-58
2023/08/16 00:38:04;;;;;;;4.55;3.83;;;15.10;99.90;;;;;;5091785;28;20391;-58
2023/08/16 00:40:29;;;;;;;7.10;4.20;;;15.20;99.90;;;;;;5091659;28;20051;-58
2023/08/16 00:42:56;;;;;;;6.68;3.80;;;15.10;99.90;;;;;;5091490;28;20111;-58
2023/08/16 00:45:23;;;;;;;4.65;3.97;;;15.10;99.90;;;;;;5091798;28;20381;-58
2023/08/16 00:47:49;;;;;;;6.80;4.15;;;15.00;99.90;;;;;;5091517;28;20111;-57
2023/08/16 00:50:16;;;;;;;5.97;3.78;;;15.10;99.90;;;;;;5091888;28;20048;-58
2023/08/16 00:52:44;;;;;;;6.22;3.45;;;15.10;99.90;;;;;;5089701;28;20506;-58
2023/08/16 00:55:10;;;;;;;4.95;3.00;;;15.10;99.90;;;;;;5091743;28;20137;-59
2023/08/16 00:57:37;;;;;;;6.00;3.75;;;14.90;99.90;;;;;;5091667;28;20050;-60
2023/08/16 01:00:05;;;;;;;6.25;4.10;;;14.90;99.90;;;;;;5106158;28;20393;-57
2023/08/16 01:02:31;;;;;;;4.20;3.80;;;14.90;99.90;;;;;;5111726;28;20100;-57
2023/08/16 01:04:58;;;;;;;4.90;4.07;;;14.80;99.90;;;;;;5111712;28;20043;-58
2023/08/16 01:07:24;;;;;;;4.63;4.13;;;14.90;99.90;;;;;;5111797;28;20039;-57
2023/08/16 01:09:52;;;;;;;5.63;3.40;;;15.00;99.90;;;;;;5110317;28;20054;-57
2023/08/16 01:12:31;;;;;;;5.22;3.47;;;15.10;99.90;;;;;;5112035;28;20063;-59
2023/08/16 01:15:17;;;;;;;4.70;4.18;;;15.10;99.90;;;;;;5111624;28;20111;-58
2023/08/16 01:17:44;;;;;;;5.22;4.68;;;15.00;99.90;;;;;;5109939;28;20036;-56
2023/08/16 01:20:12;;;;;;;4.40;3.53;;;15.00;99.90;;;;;;5104997;28;20085;-58
2023/08/16 01:23:07;;;;;;;12.30;5.50;;;15.00;99.90;;;;;;5112621;28;20066;-57
2023/08/16 01:25:50;;;;;;;7.22;4.60;;;14.90;99.90;;;;;;5115586;28;20042;-58
2023/08/16 01:28:18;;;;;;;8.38;5.43;;;14.80;99.90;;;;;;5115213;28;20116;-57
2023/08/16 01:30:48;;;;;;;7.82;5.22;;;14.90;99.90;;;;;;5113940;28;20050;-58
2023/08/16 01:33:15;;;;;;;5.38;4.80;;;15.00;99.90;;;;;;5115419;28;20039;-57
2023/08/16 01:35:42;;;;;;;6.18;4.90;;;14.90;99.90;;;;;;5114632;28;20052;-56
2023/08/16 01:38:12;;;;;;;7.90;5.53;;;14.90;99.90;;;;;;5115067;28;20054;-57
2023/08/16 01:40:45;;;;;;;6.32;4.90;;;14.80;99.90;;;;;;5115302;28;20048;-57
2023/08/16 01:43:15;;;;;;;4.63;4.22;;;14.70;99.90;;;;;;5115306;28;20032;-56
2023/08/16 01:45:41;;;;;;;6.07;4.53;;;14.70;99.90;;;;;;5114930;27;20381;-57
2023/08/16 01:48:08;;;;;;;5.97;4.38;;;14.70;99.90;;;;;;5115124;28;20485;-57
2023/08/16 01:50:35;;;;;;;5.35;4.38;;;14.70;99.90;;;;;;5114660;28;20423;-57
2023/08/16 01:53:02;;;;;;;10.68;4.97;;;14.80;99.90;;;;;;5114964;28;20039;-57
2023/08/16 01:55:28;;;;;;;6.22;4.60;;;14.80;99.90;;;;;;5114854;28;20116;-57
2023/08/16 01:57:54;;;;;;;7.57;3.90;;;14.70;99.90;;;;;;5114546;28;20040;-57
2023/08/16 02:00:20;;;;;;;5.85;4.53;;;14.60;99.90;;;;;;5114466;28;20497;-57
2023/08/16 02:02:47;;;;;;;6.28;5.07;;;14.60;99.90;;;;;;5114291;28;20031;-57
2023/08/16 02:05:13;;;;;;;6.68;4.40;;;14.60;99.90;;;;;;5114482;28;20034;-58
2023/08/16 02:07:40;;;;;;;10.80;4.93;;;14.50;99.90;;;;;;5114502;28;20425;-57
2023/08/16 02:10:07;;;;;;;8.20;4.85;;;14.40;99.90;;;;;;5114602;28;20039;-57
2023/08/16 02:12:33;;;;;;;8.02;4.50;;;14.50;99.90;;;;;;5109494;28;20054;-57
2023/08/16 02:15:00;;;;;;;6.70;4.43;;;14.40;99.90;;;;;;5104889;28;20028;-57
2023/08/16 02:17:26;;;;;;;7.47;4.35;;;14.50;99.90;;;;;;5114068;28;20028;-58
2023/08/16 02:19:53;;;;;;;7.72;4.70;;;14.60;99.90;;;;;;5114079;28;20036;-58
2023/08/16 02:22:19;;;;;;;11.50;6.15;;;14.60;99.90;;;;;;5112773;28;20131;-57
2023/08/16 02:24:46;;;;;;;9.07;5.72;;;14.60;99.90;;;;;;5114166;28;20547;-57
2023/08/16 02:27:12;;;;;;;6.10;5.38;;;14.50;99.90;;;;;;5113871;28;20031;-57
2023/08/16 02:29:38;;;;;;;9.05;5.03;;;14.40;99.90;;;;;;5114141;28;20035;-57
2023/08/16 02:32:05;;;;;;;7.07;4.55;;;14.40;99.90;;;;;;5113966;28;20055;-58
2023/08/16 02:34:32;;;;;;;6.40;4.40;;;14.40;99.90;;;;;;5112881;28;20063;-57
2023/08/16 02:36:59;;;;;;;6.68;5.13;;;14.40;99.90;;;;;;5113824;28;20166;-58
2023/08/16 02:39:26;;;;;;;8.43;4.50;;;14.30;99.90;;;;;;5114030;28;20095;-58
2023/08/16 02:41:54;;;;;;;6.00;4.50;;;14.30;99.90;;;;;;5113765;28;20044;-56
2023/08/16 02:44:21;;;;;;;5.53;5.03;;;14.30;99.90;;;;;;5113553;28;20035;-58
2023/08/16 02:46:47;;;;;;;7.50;4.97;;;14.40;99.90;;;;;;5113892;28;20039;-58
2023/08/16 02:49:13;;;;;;;6.90;5.35;;;14.50;99.90;;;;;;5113896;28;20028;-58
2023/08/16 02:51:40;;;;;;;6.72;5.45;;;14.50;99.90;;;;;;5113794;28;20040;-58
2023/08/16 02:54:06;;;;;;;5.82;5.18;;;14.40;99.90;;;;;;5113289;28;20040;-58
2023/08/16 02:56:33;;;;;;;7.32;4.93;;;14.40;99.90;;;;;;5113506;27;20040;-57
2023/08/16 02:58:59;;;;;;;6.95;5.13;;;14.40;99.90;;;;;;5111433;28;20409;-57
2023/08/16 03:01:26;;;;;;;6.05;4.90;;;14.40;99.90;;;;;;5113719;28;20043;-58
2023/08/16 03:03:53;;;;;;;10.50;4.85;;;14.30;99.90;;;;;;5113248;28;20034;-58
2023/08/16 03:06:19;;;;;;;6.10;4.15;;;14.20;99.90;;;;;;5113363;28;20035;-58
2023/08/16 03:08:46;;;;;;;4.68;3.35;;;14.20;99.90;;;;;;5113263;28;20032;-58
2023/08/16 03:11:12;;;;;;;3.40;3.10;;;14.20;99.90;;;;;;5113345;28;20058;-58
2023/08/16 03:13:39;;;;;;;5.30;4.00;;;14.20;99.90;;;;;;5113264;28;20065;-57
2023/08/16 03:16:06;;;;;;;4.68;4.22;;;14.30;99.90;;;;;;5113169;28;20036;-57
2023/08/16 03:18:33;;;;;;;4.45;4.05;;;14.20;99.90;;;;;;5112992;28;20110;-57
2023/08/16 03:21:00;;;;;;;5.90;5.30;;;14.20;99.90;;;;;;5113187;28;20078;-57
2023/08/16 03:23:27;;;;;;;5.40;4.90;;;14.30;99.90;;;;;;5112702;28;20028;-59
2023/08/16 03:25:54;;;;;;;5.00;4.43;;;14.20;99.90;;;;;;5113337;28;20040;-58
2023/08/16 03:28:20;;;;;;;4.28;3.92;;;14.10;99.90;;;;;;5112942;27;20042;-59
2023/08/16 03:30:46;;;;;;;7.30;4.60;;;14.00;99.90;;;;;;5112997;28;20064;-59
2023/08/16 03:33:12;;;;;;;5.25;4.15;;;14.10;99.90;;;;;;5113133;28;20039;-58
2023/08/16 03:35:39;;;;;;;5.72;4.47;;;14.00;99.90;;;;;;5112662;28;20524;-58
2023/08/16 03:38:06;;;;;;;5.90;4.45;;;14.00;99.90;;;;;;5112620;28;20397;-56
2023/08/16 03:40:32;;;;;;;3.90;3.30;;;13.90;99.90;;;;;;5113001;28;20092;-57
2023/08/16 03:42:59;;;;;;;6.40;3.90;;;14.00;99.90;;;;;;5112672;28;20035;-56
2023/08/16 03:45:26;;;;;;;8.15;3.80;;;14.00;99.90;;;;;;5112122;28;20077;-57
2023/08/16 03:47:55;;;;;;;4.57;4.10;;;13.90;99.90;;;;;;5112816;28;20044;-56
2023/08/16 03:50:22;;;;;;;3.85;3.45;;;14.00;99.90;;;;;;5112643;28;20054;-57
2023/08/16 03:52:48;;;;;;;9.13;3.80;;;14.00;99.90;;;;;;5112828;28;20047;-57
2023/08/16 03:55:14;;;;;;;3.72;3.42;;;13.90;99.90;;;;;;5113014;28;20039;-57
2023/08/16 03:57:41;;;;;;;4.53;4.13;;;14.00;99.90;;;;;;5112337;28;20446;-56
2023/08/16 04:00:11;;;;;;;5.97;3.95;;;13.90;99.90;;;;;;5112287;28;20051;-57
2023/08/16 04:02:39;;;;;;;6.45;4.25;;;14.00;99.90;;;;;;5112549;28;20047;-57
2023/08/16 04:05:12;;;;;;;4.93;3.47;;;13.90;99.90;;;;;;5112309;28;20083;-57
2023/08/16 04:07:39;;;;;;;8.80;3.40;;;13.80;99.90;;;;;;5110555;28;20047;-58
2023/08/16 04:10:06;;;;;;;5.57;4.72;;;13.80;99.90;;;;;;5112858;28;20111;-59
2023/08/16 04:12:33;;;;;;;5.85;4.65;;;13.80;99.90;;;;;;5112531;28;20047;-59
2023/08/16 04:14:59;;;;;;;4.72;3.58;;;13.80;99.90;;;;;;5112961;28;20115;-58
2023/08/16 04:17:26;;;;;;;4.20;3.78;;;13.80;99.90;;;;;;5112427;28;20039;-57
2023/08/16 04:19:53;;;;;;;4.70;4.20;;;13.90;99.90;;;;;;5112288;28;20043;-57
2023/08/16 04:22:40;;;;;;;5.43;4.18;;;14.00;99.90;;;;;;5112518;28;20032;-57
2023/08/16 04:25:08;;;;;;;6.03;4.28;;;13.90;99.90;;;;;;5085849;28;20031;-57
2023/08/16 04:27:34;;;;;;;4.88;3.92;;;13.80;99.90;;;;;;5112639;28;20048;-57
2023/08/16 04:30:01;;;;;;;7.53;3.45;;;13.90;99.90;;;;;;5112293;28;20043;-57
2023/08/16 04:32:27;;;;;;;5.90;4.25;;;13.90;99.90;;;;;;5112301;28;20385;-57
2023/08/16 04:34:54;;;;;;;4.13;3.50;;;13.90;99.90;;;;;;5112157;28;20035;-58
2023/08/16 04:37:20;;;;;;;3.25;2.80;;;13.90;99.90;;;;;;5110662;28;20501;-58
2023/08/16 04:39:48;;;;;;;5.28;2.60;;;13.90;99.90;;;;;;5111990;28;20074;-58
2023/08/16 04:42:14;;;;;;;7.85;2.50;;;13.90;99.90;;;;;;5100892;28;20493;-58
2023/08/16 04:44:41;;;;;;;6.53;1.90;;;13.90;99.90;;;;;;5106379;28;20481;-58
2023/08/16 04:47:08;;;;;;;6.63;1.60;;;13.80;99.90;;;;;;5098578;28;20028;-58
2023/08/16 04:49:34;;;;;;;7.53;1.60;;;13.70;99.90;;;;;;5107523;28;20039;-58
2023/08/16 04:52:00;;;;;;;2.10;1.67;;;13.70;99.90;;;;;;5106232;28;20551;-58
2023/08/16 04:54:27;;;;;;;2.85;1.85;;;13.70;99.90;;;;;;5112130;28;20393;-58
2023/08/16 04:56:53;;;;;;;2.92;1.77;;;13.80;99.90;;;;;;5112146;28;20109;-58
2023/08/16 04:59:20;;;;;;;1.80;1.70;;;13.80;99.90;;;;;;5115194;28;20043;-58
2023/08/16 05:01:46;;;;;;;3.08;1.58;;;13.90;99.90;;;;;;5115762;28;20039;-58
2023/08/16 05:04:12;;;;;;;5.63;2.10;;;13.90;99.90;;;;;;5115585;28;20511;-60
2023/08/16 05:06:39;;;;;;;2.33;1.83;;;13.90;99.90;;;;;;5115640;28;20040;-58
2023/08/16 05:09:05;;;;;;;5.80;2.33;;;14.00;99.90;;;;;;5114471;28;20082;-57
2023/08/16 05:11:32;;;;;;;5.68;2.90;;;14.10;99.90;;;;;;5115697;28;20043;-58
2023/08/16 05:13:59;;;;;;;2.78;2.03;;;14.10;99.90;;;;;;5114652;28;20428;-57
2023/08/16 05:16:25;;;;;;;2.85;2.25;;;14.20;99.90;;;;;;5114827;28;20045;-58
2023/08/16 05:18:52;;;;;;;2.45;1.90;;;14.30;99.90;;;;;;5115595;27;20543;-58
2023/08/16 05:21:19;;;;;;;3.78;2.08;;;14.40;99.90;;;;;;5115002;28;20035;-58
2023/08/16 05:23:44;;;;;;;5.70;2.30;;;14.50;99.90;;;;;;5115101;28;20035;-57
2023/08/16 05:26:10;;;;;;;4.32;2.30;;;14.60;99.90;;;;;;5108255;28;20035;-57
2023/08/16 05:28:37;;;;;;;3.47;2.60;;;14.60;99.90;;;;;;5115367;28;20070;-58
2023/08/16 05:31:12;;;;;;;5.22;3.20;;;14.70;99.90;;;;;;5115651;28;20067;-58
2023/08/16 05:33:39;;;;;;;6.05;3.50;;;14.90;99.90;;;;;;5115467;28;20040;-57
2023/08/16 05:36:06;;;;;;;3.65;3.17;;;14.90;99.90;;;;;;5114732;28;20055;-59
2023/08/16 05:38:33;;;;;;;8.00;3.47;;;15.00;99.90;;;;;;5114914;28;20039;-57
2023/08/16 05:41:03;;;;;;;4.28;3.63;;;15.20;99.90;;;;;;5114936;28;20038;-57
2023/08/16 05:43:29;;;;;;;4.88;3.85;;;15.30;99.90;;;;;;5115239;28;20039;-57
2023/08/16 05:45:55;;;;;;;5.10;4.60;;;15.40;99.90;;;;;;5110403;28;20061;-57
2023/08/16 05:48:21;;;;;;;4.63;4.10;;;15.60;99.90;;;;;;5098356;28;20113;-57
2023/08/16 05:50:48;;;;;;;9.45;5.30;;;15.70;99.90;;;;;;5093973;28;20568;-59
2023/08/16 05:53:14;;;;;;;8.68;5.18;;;15.80;99.90;;;;;;5094931;28;20448;-58
2023/08/16 05:55:40;;;;;;;16.10;7.40;;;16.00;99.90;;;;;;5091460;28;20462;-58
2023/08/16 05:58:06;;;;;;;10.82;6.05;;;16.00;99.90;;;;;;5093147;28;20040;-57
2023/08/16 06:00:32;;;;;;;9.65;4.80;;;16.20;99.90;;;;;;5093068;28;20077;-57
2023/08/16 06:02:58;;;;;;;5.13;4.43;;;16.20;99.90;;;;;;5094486;28;20111;-58
2023/08/16 06:05:24;;;;;;;8.90;5.70;;;16.40;99.90;;;;;;5093787;28;20031;-58
2023/08/16 06:07:50;;;;;;;8.40;6.30;;;16.50;99.90;;;;;;5092661;28;20032;-59
2023/08/16 06:10:17;;;;;;;7.60;6.13;;;16.50;99.90;;;;;;5093808;28;20545;-58
2023/08/16 06:12:43;;;;;;;11.43;6.50;;;16.60;99.90;;;;;;5094171;28;20075;-57
2023/08/16 06:15:12;;;;;;;7.28;5.22;;;16.70;99.90;;;;;;5093667;28;20032;-57
2023/08/16 06:17:38;;;;;;;6.70;4.57;;;16.80;99.90;;;;;;5093682;28;20486;-59
2023/08/16 06:20:07;;;;;;;7.35;5.07;;;16.90;99.90;;;;;;5097451;28;20036;-58
2023/08/16 06:22:33;;;;;;;;;;;17.00;99.90;;;;;;5114561;28;20035;-58
2023/08/16 06:25:00;;;;;;;7.28;4.47;;;17.00;99.90;;;;;;5113924;28;19973;-57
2023/08/16 06:27:28;;;;;;;6.35;5.35;;;17.10;99.90;;;;;;5113983;28;20081;-58
2023/08/16 06:29:54;;;;;;;7.97;5.22;;;17.20;99.90;;;;;;5114025;28;20035;-58
2023/08/16 06:32:21;;;;;;;20.33;6.20;;;17.20;99.90;;;;;;5113781;28;20050;-58
2023/08/16 06:34:51;;;;;;;13.40;5.72;;;17.30;99.90;;;;;;5113793;28;20040;-57
2023/08/16 06:37:17;;;;;;;8.52;4.70;;;17.40;99.90;;;;;;5113704;28;20490;-57
2023/08/16 06:39:44;;;;;;;4.72;4.22;;;17.50;99.90;;;;;;5114029;28;20043;-57
2023/08/16 06:42:10;;;;;;;6.95;4.40;;;17.60;99.90;;;;;;5113676;28;20035;-59
2023/08/16 06:44:36;;;;;;;5.22;4.60;;;17.80;99.90;;;;;;5094066;27;20097;-58
2023/08/16 06:47:03;;;;;;;5.78;4.57;;;17.80;99.90;;;;;;5097776;28;20042;-59
2023/08/16 06:49:30;;;;;;;16.52;5.30;;;18.10;99.90;;;;;;5089579;28;20436;-61
2023/08/16 06:51:56;;;;;;;13.43;5.30;;;18.40;99.90;;;;;;5092471;28;20040;-61
2023/08/16 06:54:24;;;;;;;8.05;4.63;;;18.60;99.90;;;;;;5094154;28;20040;-61
2023/08/16 06:56:52;;;;;;;8.38;5.40;;;18.70;99.90;;;;;;5093764;28;20054;-61
2023/08/16 06:59:19;;;;;;;7.82;5.07;;;19.10;99.90;;;;;;5093610;28;20378;-60
2023/08/16 07:01:45;;;;;;;6.25;4.45;;;19.50;99.90;;;;;;5093061;28;20536;-60
2023/08/16 07:04:11;;;;;;;7.45;4.57;;;19.80;99.90;;;;;;5093681;28;20043;-60
2023/08/16 07:06:37;;;;;;;6.43;3.88;;;20.10;99.90;;;;;;5093930;28;20040;-62
2023/08/16 07:09:04;;;;;;;5.53;3.60;;;20.40;99.90;;;;;;5093430;28;20032;-60
2023/08/16 07:11:32;;;;;;;9.23;4.32;;;20.50;99.90;;;;;;5093598;28;20040;-59
2023/08/16 07:14:00;;;;;;;6.95;4.05;;;20.90;99.90;;;;;;5093320;28;20117;-60
2023/08/16 07:16:25;;;;;;;7.63;3.63;;;20.90;99.90;;;;;;5093182;28;20482;-61
2023/08/16 07:18:51;;;;;;;6.68;3.88;;;20.80;99.90;;;;;;5093361;28;20124;-60
2023/08/16 07:21:17;;;;;;;10.32;3.58;;;21.00;99.90;;;;;;5092471;28;20040;-60
2023/08/16 07:23:44;;;;;;;6.97;3.70;;;21.00;99.90;;;;;;5093298;28;20115;-61
2023/08/16 07:26:10;;;;;;;7.05;3.22;;;21.10;99.90;;;;;;5093442;28;20032;-61
2023/08/16 07:28:36;;;;;;;8.55;3.20;;;21.10;99.90;;;;;;5111194;28;20385;-61
2023/08/16 07:31:02;;;;;;;4.32;3.33;;;21.50;99.90;;;;;;5113874;28;20039;-61
2023/08/16 07:33:30;;;;;;;6.95;3.47;;;21.90;99.90;;;;;;5113734;28;20039;-61
2023/08/16 07:36:01;;;;;;;7.45;4.20;;;22.30;99.90;;;;;;5113200;28;20417;-61
2023/08/16 07:38:28;;;;;;;6.78;3.90;;;22.40;99.90;;;;;;5111789;28;20052;-61
2023/08/16 07:40:54;;;;;;;9.52;4.18;;;22.60;99.90;;;;;;5105242;28;20379;-61
2023/08/16 07:43:20;;;;;;;9.10;3.42;;;22.90;99.90;;;;;;5108676;28;20046;-59
2023/08/16 07:45:50;;;;;;;7.25;2.80;;;23.10;99.90;;;;;;5113238;28;20040;-59
2023/08/16 07:48:18;;;;;;;6.28;3.38;;;23.20;99.90;;;;;;5113322;28;20111;-60
2023/08/16 07:50:45;;;;;;;7.95;3.50;;;23.50;99.90;;;;;;5113226;28;20040;-60
2023/08/16 07:53:12;;;;;;;6.68;2.58;;;23.70;99.90;;;;;;5111551;28;20059;-59
2023/08/16 07:55:37;;;;;;;4.88;1.50;;;24.10;99.90;;;;;;5112821;28;20047;-59
2023/08/16 07:58:03;;;;;;;2.83;1.20;;;24.40;99.90;;;;;;5113226;28;20039;-60
2023/08/16 08:00:30;;;;;;;4.55;1.80;;;24.50;99.90;;;;;;5112609;28;20051;-60
2023/08/16 08:02:58;;;;;;;5.07;1.23;;;24.50;99.90;;;;;;5112605;28;20545;-60
2023/08/16 08:05:25;;;;;;;4.65;1.30;;;24.50;99.90;;;;;;5112618;28;20035;-60
2023/08/16 08:07:55;;;;;;;3.42;1.08;;;24.80;99.90;;;;;;5113028;28;20444;-60
2023/08/16 08:10:22;;;;;;;4.68;0.88;;;25.10;99.90;;;;;;5112388;28;20116;-60
2023/08/16 08:12:48;;;;;;;2.05;0.90;;;25.20;99.90;;;;;;5112556;28;20129;-60
2023/08/16 08:15:14;;;;;;;3.78;1.00;;;25.40;99.90;;;;;;5082222;28;20047;-61
2023/08/16 08:17:40;;;;;;;2.78;0.77;;;25.80;99.90;;;;;;5089564;28;20402;-60
2023/08/16 08:20:08;;;;;;;1.83;0.70;;;25.80;99.90;;;;;;5102646;28;20497;-59
2023/08/16 08:22:34;;;;;;;3.35;1.00;;;25.90;99.90;;;;;;5092331;28;20093;-60
2023/08/16 08:25:01;;;;;;;3.42;0.90;;;26.10;99.90;;;;;;5092204;28;20129;-61
2023/08/16 08:27:26;;;;;;;3.65;0.88;;;26.20;99.90;;;;;;5099786;28;20023;-61
2023/08/16 08:29:53;;;;;;;1.92;0.75;;;26.00;99.90;;;;;;5110635;28;20383;-61
2023/08/16 08:32:20;;;;;;;1.85;0.70;;;26.00;99.90;;;;;;5114628;28;20047;-61
2023/08/16 08:34:48;;;;;;;3.42;1.00;;;26.30;99.90;;;;;;5116562;28;20067;-60
2023/08/16 08:37:13;;;;;;;5.32;1.25;;;26.40;99.90;;;;;;5116235;28;20503;-61
2023/08/16 08:39:40;;;;;;;3.03;1.00;;;26.70;99.90;;;;;;5116567;28;20169;-61
2023/08/16 08:42:10;;;;;;;1.85;0.60;;;26.70;99.90;;;;;;5115871;28;20110;-61
2023/08/16 08:44:38;;;;;;;4.70;0.93;;;26.80;99.90;;;;;;5114712;28;20112;-61
2023/08/16 08:47:07;;;;;;;1.98;0.82;;;26.80;99.90;;;;;;5099706;28;20057;-61
2023/08/16 08:49:34;;;;;;;2.35;0.77;;;27.00;99.90;;;;;;5110295;28;20046;-61
2023/08/16 08:52:04;;;;;;;5.63;1.00;;;27.10;99.90;;;;;;5106970;28;20054;-62
2023/08/16 08:54:31;;;;;;;3.22;0.80;;;27.10;99.90;;;;;;5095159;28;20051;-59
2023/08/16 08:57:02;;;;;;;2.85;1.08;;;27.10;99.90;;;;;;5095555;28;20032;-61
2023/08/16 08:59:33;;;;;;;3.45;1.35;;;27.40;99.90;;;;;;5095378;28;20039;-61
2023/08/16 09:02:00;;;;;;;3.10;1.08;;;27.50;99.90;;;;;;5095211;28;20125;-61
2023/08/16 09:04:29;;;;;;;6.20;1.23;;;27.70;99.90;;;;;;5095336;28;20454;-61
2023/08/16 09:06:56;;;;;;;3.10;1.02;;;27.70;99.90;;;;;;5094771;28;20093;-60
2023/08/16 09:09:23;;;;;;;3.25;1.05;;;27.90;99.90;;;;;;5077257;28;20048;-61
2023/08/16 09:11:49;;;;;;;3.95;1.20;;;28.00;99.90;;;;;;5094726;28;20048;-61
2023/08/16 09:14:16;;;;;;;1.90;0.73;;;28.10;99.90;;;;;;5098416;28;20035;-61
2023/08/16 09:16:43;;;;;;;3.65;1.00;;;28.00;99.90;;;;;;5111646;28;20035;-62
2023/08/16 09:19:16;;;;;;;1.20;0.68;;;28.10;99.90;;;;;;5115365;28;20040;-62
2023/08/16 09:21:42;;;;;;;2.10;0.88;;;28.20;99.90;;;;;;5114897;28;20529;-62
2023/08/16 09:24:12;;;;;;;5.20;1.10;;;27.90;99.90;;;;;;5115248;28;20034;-61
2023/08/16 09:26:40;;;;;;;2.50;1.10;;;27.40;99.90;;;;;;5114745;28;20088;-61
2023/08/16 09:29:08;;;;;;;3.08;1.38;;;27.40;99.90;;;;;;5115288;28;20032;-61
2023/08/16 09:31:39;;;;;;;3.13;1.10;;;27.50;99.90;;;;;;5114863;28;20035;-61
2023/08/16 09:34:11;;;;;;;1.92;1.05;;;27.40;99.90;;;;;;5114005;28;20285;-61
2023/08/16 09:36:43;;;;;;;3.28;1.27;;;27.30;99.90;;;;;;5115044;28;20060;-61
2023/08/16 09:39:09;;;;;;;3.30;1.15;;;27.30;99.90;;;;;;5114767;28;20039;-61
2023/08/16 09:41:38;;;;;;;4.82;1.20;;;27.50;99.90;;;;;;5115135;28;20040;-61
2023/08/16 09:44:06;;;;;;;1.80;0.68;;;27.50;99.90;;;;;;5114044;27;20042;-61
2023/08/16 09:46:34;;;;;;;4.20;1.60;;;27.60;99.90;;;;;;5114842;28;20547;-61
2023/08/16 09:49:03;;;;;;;3.53;0.93;;;27.60;99.90;;;;;;5114700;28;20038;-61
2023/08/16 09:51:32;;;;;;;3.30;1.27;;;27.40;99.90;;;;;;5114713;28;20039;-62
2023/08/16 09:53:58;;;;;;;3.72;1.38;;;27.60;99.90;;;;;;5114736;28;20461;-62
2023/08/16 09:56:27;;;;;;;4.40;1.50;;;27.70;99.90;;;;;;5114861;28;20039;-61
2023/08/16 09:58:54;;;;;;;4.53;1.63;;;28.00;99.90;;;;;;5114598;28;20074;-60
2023/08/16 10:01:22;;;;;;;5.18;1.83;;;28.00;99.90;;;;;;5114418;28;20394;-61
2023/08/16 10:03:54;;;;;;;2.13;1.60;;;28.00;99.90;;;;;;5114251;28;20439;-61
2023/08/16 10:06:25;;;;;;;3.53;1.80;;;28.20;99.90;;;;;;5113546;27;20071;-61
2023/08/16 10:08:52;;;;;;;3.80;1.40;;;27.80;99.90;;;;;;5114266;28;20036;-61
2023/08/16 10:11:19;;;;;;;4.32;1.20;;;27.50;99.90;;;;;;5114337;28;20032;-61
2023/08/16 10:13:46;;;;;;;2.80;1.23;;;26.90;99.90;;;;;;5114090;28;20092;-62
2023/08/16 10:16:15;;;;;;;4.15;1.27;;;27.00;99.90;;;;;;5113917;28;20114;-62
2023/08/16 10:18:43;;;;;;;2.70;1.70;;;27.00;99.90;;;;;;5114286;28;20083;-62
2023/08/16 10:21:16;;;;;;;6.65;1.67;;;26.70;99.90;;;;;;5114142;28;20032;-61
2023/08/16 10:23:43;;;;;;;3.22;1.80;;;26.60;99.90;;;;;;5114071;28;20067;-60
2023/08/16 10:26:14;;;;;;;1.77;1.30;;;26.50;99.90;;;;;;5113889;28;20032;-60
2023/08/16 10:28:55;;;;;;;4.32;1.77;;;26.90;99.90;;;;;;5113752;28;20036;-60
2023/08/16 10:31:26;;;;;;;6.95;1.83;;;27.10;99.90;;;;;;5113910;28;20047;-61
2023/08/16 10:33:56;;;;;;;1.88;1.20;;;27.20;99.90;;;;;;5113718;28;20549;-61
2023/08/16 10:36:24;;;;;;;3.53;1.25;;;27.00;99.90;;;;;;5113577;28;20056;-62
2023/08/16 10:38:54;;;;;;;;;;;26.80;99.90;;;;;;5113880;28;20614;-62
2023/08/16 10:41:24;;;;;;;3.03;1.20;;;26.40;99.90;;;;;;5113807;27;20012;-61
2023/08/16 10:43:53;;;;;;;2.08;1.00;;;26.40;99.90;;;;;;5113889;28;20035;-61
2023/08/16 10:46:30;;;;;;;7.88;0.95;;;26.40;99.90;;;;;;5113599;28;20038;-61
2023/08/16 10:49:00;;;;;;;2.97;1.05;;;26.60;99.90;;;;;;5113290;28;20478;-61
2023/08/16 10:51:27;;;;;;;4.88;1.30;;;26.60;99.90;;;;;;5113594;28;20042;-61
2023/08/16 10:54:00;;;;;;;4.50;1.10;;;26.80;99.90;;;;;;5113296;28;20075;-61
2023/08/16 10:56:44;;;;;;;4.03;1.60;;;26.80;99.90;;;;;;5111754;28;20047;-61
2023/08/16 10:59:12;;;;;;;2.17;1.05;;;27.10;99.90;;;;;;5113257;28;20039;-61
2023/08/16 11:01:53;;;;;;;3.22;0.95;;;27.10;99.90;;;;;;5113330;28;20039;-62
2023/08/16 11:04:19;;;;;;;2.65;1.25;;;27.30;99.90;;;;;;5113497;28;20084;-61
2023/08/16 11:06:46;;;;;;;6.53;1.33;;;27.50;99.90;;;;;;5113404;28;20039;-62
2023/08/16 11:09:12;;;;;;;3.90;1.00;;;27.60;99.90;;;;;;5113157;27;20038;-62
2023/08/16 11:11:48;;;;;;;2.90;1.20;;;27.30;99.90;;;;;;5113042;28;20389;-62
2023/08/16 11:14:15;;;;;;;4.03;1.45;;;27.40;99.90;;;;;;5113027;28;20071;-62
2023/08/16 11:16:54;;;;;;;3.28;1.20;;;27.40;99.90;;;;;;5089326;27;20439;-62
2023/08/16 11:19:21;;;;;;;3.70;1.60;;;27.80;99.90;;;;;;5089282;28;20040;-61
2023/08/16 11:21:48;;;;;;;2.65;1.10;;;27.70;99.90;;;;;;5088052;28;20402;-62
2023/08/16 11:24:14;;;;;;;3.25;1.23;;;27.70;99.90;;;;;;5089015;28;20051;-61
2023/08/16 11:26:40;;;;;;;3.33;1.00;;;27.60;99.90;;;;;;5088921;28;20044;-61
2023/08/16 11:29:06;;;;;;;6.22;1.27;;;27.30;99.90;;;;;;5089199;28;20036;-61
2023/08/16 11:31:36;;;;;;;3.63;1.30;;;26.80;99.90;;;;;;5089102;28;20561;-62
2023/08/16 11:34:11;;;;;;;4.63;1.15;;;26.60;99.90;;;;;;5061622;28;20074;-62
2023/08/16 11:36:38;;;;;;;2.05;1.02;;;26.40;99.90;;;;;;5088776;28;20032;-61
2023/08/16 11:39:08;;;;;;;3.65;1.10;;;26.10;99.90;;;;;;5088577;28;20031;-61
2023/08/16 11:41:38;;;;;;;8.30;1.35;;;25.80;99.90;;;;;;5089027;28;20396;-61
2023/08/16 11:44:05;;;;;;;3.40;1.10;;;25.60;99.90;;;;;;5088706;28;20422;-61
2023/08/16 11:46:44;;;;;;;3.25;1.67;;;25.70;99.90;;;;;;5088696;28;20123;-61
2023/08/16 11:49:12;;;;;;;4.18;1.27;;;25.80;99.90;;;;;;5088467;28;20036;-62
2023/08/16 11:51:42;;;;;;;3.50;1.02;;;26.10;99.90;;;;;;5088421;28;20048;-61
2023/08/16 11:54:22;;;;;;;1.75;0.95;;;25.90;99.90;;;;;;5088659;28;20038;-60
2023/08/16 11:56:49;;;;;;;2.28;1.40;;;25.90;99.90;;;;;;5088463;28;20509;-61
2023/08/16 11:59:26;;;;;;;5.10;1.45;;;25.80;99.90;;;;;;5088316;28;20064;-62
2023/08/16 12:01:54;;;;;;;3.83;1.33;;;25.60;99.90;;;;;;5088583;28;20041;-62
2023/08/16 12:04:24;;;;;;;6.68;1.83;;;25.50;99.90;;;;;;5087885;28;20486;-61
2023/08/16 12:07:10;;;;;;;3.45;1.42;;;25.30;99.90;;;;;;5088154;28;20036;-61
2023/08/16 12:09:40;;;;;;;4.93;1.45;;;25.10;99.90;;;;;;5088113;28;20107;-60
2023/08/16 12:12:08;;;;;;;3.83;1.50;;;25.10;99.90;;;;;;5088279;28;20127;-62
2023/08/16 12:14:36;;;;;;;;;;;24.90;99.90;;;;;;5086602;28;20028;-61
2023/08/16 12:17:05;;;;;;;4.90;1.80;;;24.70;99.90;;;;;;5088103;28;19922;-61
2023/08/16 12:19:34;;;;;;;5.10;1.98;;;24.50;99.90;;;;;;5087939;28;20040;-60
2023/08/16 12:22:01;;;;;;;;;;;24.50;99.90;;;;;;5088393;28;20051;-62
2023/08/16 12:24:30;;;;;;;6.00;2.28;;;24.30;99.90;;;;;;5087476;28;19916;-62
2023/08/16 12:26:57;;;;;;;;;;;24.20;99.90;;;;;;5081649;28;20068;-61
2023/08/16 12:29:27;;;;;;;4.47;1.90;;;24.30;99.90;;;;;;5073457;28;19969;-60
2023/08/16 12:31:59;;;;;;;2.08;1.40;;;24.60;99.90;;;;;;5074190;28;20044;-61
2023/08/16 12:34:28;;;;;;;4.47;1.60;;;24.80;99.90;;;;;;5074087;28;20493;-61
2023/08/16 12:36:56;;;;;;;1.88;1.45;;;25.10;99.90;;;;;;5072747;28;20044;-61
2023/08/16 12:39:23;;;;;;;3.15;1.50;;;25.20;99.90;;;;;;5073968;28;20500;-61
2023/08/16 12:41:49;;;;;;;4.90;2.50;;;25.40;99.90;;;;;;5073960;28;20047;-62
2023/08/16 12:44:15;;;;;;;5.88;2.40;;;25.30;99.90;;;;;;5074578;28;20036;-60
2023/08/16 12:46:42;;;;;;;4.82;1.70;;;25.40;99.90;;;;;;5074173;28;20067;-60
2023/08/16 12:49:09;;;;;;;4.30;2.10;;;25.60;99.90;;;;;;5073867;28;20402;-61
2023/08/16 12:51:36;;;;;;;3.67;1.77;;;25.80;99.90;;;;;;5074026;28;20036;-60